createdAt,value
2022-09-26T00:00:12.169Z,96124.31
2022-09-26T00:02:38.557Z,96123.78
2022-09-26T00:05:05.639Z,96124.16
2022-09-26T00:07:31.940Z,96124.13
2022-09-26T00:09:58.270Z,96122.47
2022-09-26T00:12:24.706Z,96123.72
2022-09-26T00:14:51.030Z,96130.16
2022-09-26T00:17:17.339Z,96117.53
2022-09-26T00:19:43.675Z,96112.50
2022-09-26T00:22:10.013Z,96102.38
2022-09-26T00:24:36.672Z,96109.13
2022-09-26T00:27:03.058Z,96103.09
2022-09-26T00:29:29.350Z,96102.88
2022-09-26T00:31:55.776Z,96101.84
2022-09-26T00:34:22.189Z,96100.94
2022-09-26T00:36:48.627Z,96098.78
2022-09-26T00:39:15.836Z,96097.22
2022-09-26T00:41:42.969Z,96094.88
2022-09-26T00:44:34.133Z,96087.69
2022-09-26T00:47:01.037Z,96080.31
2022-09-26T00:49:31.019Z,96076.72
2022-09-26T00:52:12.017Z,96076.78
2022-09-26T00:54:42.353Z,96071.59
2022-09-26T00:57:14.718Z,96068.44
2022-09-26T00:59:53.919Z,96068.16
2022-09-26T01:02:21.478Z,96058.03
2022-09-26T01:04:48.547Z,96064.50
2022-09-26T01:07:19.842Z,96063.97
2022-09-26T01:09:48.073Z,96059.81
2022-09-26T01:12:16.438Z,96059.25
2022-09-26T01:14:44.697Z,96055.34
2022-09-26T01:17:11.470Z,96053.59
2022-09-26T01:20:14.912Z,96056.91
2022-09-26T01:22:44.185Z,96047.19
2022-09-26T01:25:30.326Z,96047.03
2022-09-26T01:28:29.456Z,96049.69
2022-09-26T01:31:25.228Z,96049.53
2022-09-26T01:34:27.882Z,96044.84
2022-09-26T01:37:05.319Z,96031.84
2022-09-26T01:39:43.836Z,96031.94
2022-09-26T01:42:33.595Z,96035.88
2022-09-26T01:45:15.189Z,96025.75
2022-09-26T01:48:03.245Z,96019.50
2022-09-26T01:50:48.954Z,96030.78
2022-09-26T01:53:53.619Z,96034.09
2022-09-26T01:56:25.412Z,96029.97
2022-09-26T01:58:57.001Z,96021.91
2022-09-26T02:01:27.469Z,96024.91
2022-09-26T02:03:58.231Z,96020.44
2022-09-26T02:06:36.103Z,96023.88
2022-09-26T02:09:12.743Z,96015.25
2022-09-26T02:11:43.294Z,96016.44
2022-09-26T02:14:19.862Z,96010.69
2022-09-26T02:16:55.570Z,96014.00
2022-09-26T02:19:25.491Z,96019.59
2022-09-26T02:21:52.545Z,96001.69
2022-09-26T02:24:18.983Z,95999.63
2022-09-26T02:26:45.869Z,96004.69
2022-09-26T02:29:14.031Z,96005.53
2022-09-26T02:31:48.543Z,95995.53
2022-09-26T02:34:15.167Z,95991.78
2022-09-26T02:36:42.004Z,95991.78
2022-09-26T02:39:10.572Z,95983.53
2022-09-26T02:41:40.005Z,95988.47
2022-09-26T02:44:37.951Z,95981.56
2022-09-26T02:47:04.200Z,95971.88
2022-09-26T02:50:08.788Z,95970.72
2022-09-26T02:52:52.135Z,95969.06
2022-09-26T02:55:26.922Z,95975.59
2022-09-26T02:58:23.820Z,95976.94
2022-09-26T03:01:14.983Z,95981.97
2022-09-26T03:03:51.821Z,95977.41
2022-09-26T03:06:34.953Z,95981.53
2022-09-26T03:09:02.027Z,95977.72
2022-09-26T03:11:30.443Z,95969.50
2022-09-26T03:13:58.706Z,95973.53
2022-09-26T03:16:29.420Z,95976.59
2022-09-26T03:19:01.707Z,95974.75
2022-09-26T03:21:28.262Z,95973.78
2022-09-26T03:23:56.213Z,95984.00
2022-09-26T03:26:25.872Z,95978.53
2022-09-26T03:28:53.701Z,95977.19
2022-09-26T03:31:22.088Z,95979.81
2022-09-26T03:33:49.093Z,95972.84
2022-09-26T03:36:15.620Z,95966.59
2022-09-26T03:38:42.068Z,95972.81
2022-09-26T03:41:09.519Z,95958.81
2022-09-26T03:43:36.481Z,95963.31
2022-09-26T03:46:04.606Z,95953.78
2022-09-26T03:48:31.461Z,95952.38
2022-09-26T03:51:06.395Z,95951.41
2022-09-26T03:53:33.998Z,95952.78
2022-09-26T03:56:10.328Z,95945.22
2022-09-26T03:58:37.483Z,95939.56
2022-09-26T04:01:08.670Z,95943.88
2022-09-26T04:03:36.986Z,95942.88
2022-09-26T04:06:04.319Z,95938.75
2022-09-26T04:08:31.303Z,95937.44
2022-09-26T04:11:04.402Z,95927.44
2022-09-26T04:13:50.629Z,95922.03
2022-09-26T04:16:20.383Z,95917.44
2022-09-26T04:18:50.188Z,95921.53
2022-09-26T04:21:16.896Z,95915.28
2022-09-26T04:23:43.981Z,95912.16
2022-09-26T04:26:21.738Z,95909.09
2022-09-26T04:28:55.223Z,95912.38
2022-09-26T04:31:23.173Z,95908.09
2022-09-26T04:33:50.870Z,95907.69
2022-09-26T04:36:18.240Z,95911.13
2022-09-26T04:38:44.573Z,95902.25
2022-09-26T04:41:13.747Z,95906.50
2022-09-26T04:43:40.584Z,95896.66
2022-09-26T04:46:17.178Z,95902.78
2022-09-26T04:48:48.020Z,95894.22
2022-09-26T04:51:16.676Z,95895.78
2022-09-26T04:53:43.720Z,95892.19
2022-09-26T04:56:12.156Z,95900.28
2022-09-26T04:58:39.097Z,95896.44
2022-09-26T05:01:07.944Z,95896.94
2022-09-26T05:03:37.161Z,95892.78
2022-09-26T05:06:07.157Z,95887.00
2022-09-26T05:08:33.667Z,95892.97
2022-09-26T05:11:01.372Z,95891.78
2022-09-26T05:13:28.795Z,95893.16
2022-09-26T05:15:55.673Z,95892.66
2022-09-26T05:18:29.071Z,95895.66
2022-09-26T05:20:57.315Z,95889.16
2022-09-26T05:23:45.431Z,95900.06
2022-09-26T05:26:40.294Z,95890.94
2022-09-26T05:29:08.883Z,95886.72
2022-09-26T05:31:37.629Z,95890.19
2022-09-26T05:34:05.388Z,95887.53
2022-09-26T05:36:31.725Z,95886.19
2022-09-26T05:38:58.152Z,95880.44
2022-09-26T05:41:31.226Z,95880.47
2022-09-26T05:43:58.949Z,95875.53
2022-09-26T05:46:27.433Z,95884.63
2022-09-26T05:48:55.474Z,95884.59
2022-09-26T05:51:22.305Z,95874.25
2022-09-26T05:53:49.550Z,95882.78
2022-09-26T05:56:19.214Z,95880.78
2022-09-26T05:58:45.883Z,95880.72
2022-09-26T06:01:15.264Z,95880.56
2022-09-26T06:03:43.630Z,95874.28
2022-09-26T06:06:16.276Z,95877.03
2022-09-26T06:08:42.962Z,95871.38
2022-09-26T06:11:17.354Z,95862.75
2022-09-26T06:13:45.830Z,95860.91
2022-09-26T06:16:17.801Z,95860.13
2022-09-26T06:18:45.210Z,95866.81
2022-09-26T06:21:13.940Z,95871.38
2022-09-26T06:23:40.924Z,95860.56
2022-09-26T06:26:09.540Z,95869.09
2022-09-26T06:28:36.651Z,95865.38
2022-09-26T06:31:15.236Z,95861.97
2022-09-26T06:33:41.932Z,95855.28
2022-09-26T06:36:10.788Z,95865.69
2022-09-26T06:38:37.710Z,95861.25
2022-09-26T06:41:04.580Z,95865.69
2022-09-26T06:43:31.316Z,95861.09
2022-09-26T06:45:57.644Z,95861.63
2022-09-26T06:48:25.543Z,95857.69
2022-09-26T06:50:56.976Z,95855.28
2022-09-26T06:53:23.341Z,95861.78
2022-09-26T06:55:49.838Z,95865.22
2022-09-26T06:58:16.169Z,95863.59
2022-09-26T07:00:42.581Z,95863.38
2022-09-26T07:03:09.458Z,95865.06
2022-09-26T07:05:35.945Z,95871.13
2022-09-26T07:08:02.577Z,95871.91
2022-09-26T07:10:34.552Z,95869.16
2022-09-26T07:13:04.228Z,95860.59
2022-09-26T07:15:33.459Z,95866.84
2022-09-26T07:18:02.534Z,95868.63
2022-09-26T07:20:32.039Z,95859.47
2022-09-26T07:23:06.484Z,95868.84
2022-09-26T07:25:33.485Z,95869.25
2022-09-26T07:28:01.515Z,95864.69
2022-09-26T07:30:28.383Z,95869.63
2022-09-26T07:33:03.462Z,95873.19
2022-09-26T07:35:35.470Z,95870.13
2022-09-26T07:38:02.186Z,95868.38
2022-09-26T07:40:28.822Z,95874.91
2022-09-26T07:43:18.609Z,95872.06
2022-09-26T07:46:04.236Z,95876.47
2022-09-26T07:48:49.096Z,95875.19
2022-09-26T07:51:16.359Z,95870.09
2022-09-26T07:53:42.647Z,95869.16
2022-09-26T07:56:10.494Z,95873.53
2022-09-26T07:58:39.736Z,95860.72
2022-09-26T08:01:11.595Z,95864.31
2022-09-26T08:03:43.103Z,95861.63
2022-09-26T08:06:10.226Z,95858.38
2022-09-26T08:08:36.877Z,95859.53
2022-09-26T08:11:04.559Z,95852.81
2022-09-26T08:13:32.748Z,95859.69
2022-09-26T08:16:06.091Z,95854.31
2022-09-26T08:18:33.049Z,95861.09
2022-09-26T08:20:59.381Z,95865.69
2022-09-26T08:23:25.683Z,95862.91
2022-09-26T08:25:52.168Z,95863.09
2022-09-26T08:28:18.542Z,95856.88
2022-09-26T08:30:45.119Z,95858.50
2022-09-26T08:33:12.454Z,95859.84
2022-09-26T08:35:39.310Z,95861.69
2022-09-26T08:38:07.096Z,95856.72
2022-09-26T08:41:02.644Z,95856.56
2022-09-26T08:43:29.945Z,95851.00
2022-09-26T08:46:38.191Z,95854.47
2022-09-26T08:49:28.953Z,95849.19
2022-09-26T08:51:58.895Z,95851.66
2022-09-26T08:54:42.218Z,95858.41
2022-09-26T08:57:31.084Z,95852.47
2022-09-26T08:59:58.140Z,95855.94
2022-09-26T09:02:41.865Z,95844.75
2022-09-26T09:05:17.843Z,95847.38
2022-09-26T09:07:49.778Z,95850.66
2022-09-26T09:10:19.836Z,95855.75
2022-09-26T09:13:23.400Z,95851.34
2022-09-26T09:16:08.676Z,95850.00
2022-09-26T09:18:59.762Z,95852.16
2022-09-26T09:21:32.332Z,95848.72
2022-09-26T09:24:38.171Z,95853.47
2022-09-26T09:30:21.669Z,95846.72
2022-09-26T09:32:56.198Z,95846.38
2022-09-26T09:35:38.257Z,95848.66
2022-09-26T09:38:07.529Z,95837.97
2022-09-26T09:40:43.130Z,95833.69
2022-09-26T09:43:27.030Z,95830.59
2022-09-26T09:45:59.236Z,95824.84
2022-09-26T09:48:28.043Z,95813.28
2022-09-26T09:51:14.704Z,95815.09
2022-09-26T09:53:55.764Z,95808.03
2022-09-26T09:56:51.968Z,95809.19
2022-09-26T09:59:26.213Z,95802.38
2022-09-26T10:02:12.023Z,95804.31
2022-09-26T10:04:44.276Z,95792.31
2022-09-26T10:07:10.723Z,95787.66
2022-09-26T10:09:43.782Z,95787.56
2022-09-26T10:12:20.764Z,95785.59
2022-09-26T10:14:56.099Z,95779.78
2022-09-26T10:17:23.716Z,95779.78
2022-09-26T10:19:50.583Z,95773.69
2022-09-26T10:22:37.110Z,95773.94
2022-09-26T10:25:15.818Z,95766.06
2022-09-26T10:27:50.024Z,95771.81
2022-09-26T10:30:19.334Z,95762.38
2022-09-26T10:32:56.036Z,95763.31
2022-09-26T10:35:29.618Z,95763.16
2022-09-26T10:38:00.667Z,95758.50
2022-09-26T10:40:48.600Z,95761.59
2022-09-26T10:43:33.214Z,95765.25
2022-09-26T10:46:13.468Z,95753.00
2022-09-26T10:48:48.716Z,95754.19
2022-09-26T10:51:32.506Z,95753.56
2022-09-26T10:54:04.818Z,95753.25
2022-09-26T10:56:37.079Z,95741.13
2022-09-26T10:59:10.047Z,95749.09
2022-09-26T11:01:43.013Z,95733.81
2022-09-26T11:04:39.675Z,95733.97
2022-09-26T11:07:09.587Z,95729.22
2022-09-26T11:09:38.307Z,95722.94
2022-09-26T11:12:26.120Z,95719.88
2022-09-26T11:14:56.930Z,95718.66
2022-09-26T11:17:44.961Z,95716.66
2022-09-26T11:20:39.393Z,95706.28
2022-09-26T11:23:30.627Z,95703.97
2022-09-26T11:26:11.291Z,95705.34
2022-09-26T11:28:47.469Z,95685.03
2022-09-26T11:31:28.965Z,95688.44
2022-09-26T11:33:59.623Z,95684.47
2022-09-26T11:36:46.886Z,95675.88
2022-09-26T11:39:23.018Z,95664.38
2022-09-26T11:42:07.554Z,95656.94
2022-09-26T11:44:53.713Z,95658.94
2022-09-26T11:47:42.738Z,95662.16
2022-09-26T11:50:24.433Z,95657.13
2022-09-26T11:53:15.837Z,95648.81
2022-09-26T11:55:54.930Z,95646.13
2022-09-26T11:58:39.999Z,95637.84
2022-09-26T12:01:38.195Z,95637.31
2022-09-26T12:04:40.735Z,95628.53
2022-09-26T12:07:17.440Z,95626.66
2022-09-26T12:10:26.145Z,95616.63
2022-09-26T12:13:12.037Z,95611.34
2022-09-26T12:15:55.081Z,95611.00
2022-09-26T12:18:59.637Z,95610.09
2022-09-26T12:22:08.920Z,95608.34
2022-09-26T12:25:07.217Z,95605.16
2022-09-26T12:27:51.799Z,95614.81
2022-09-26T12:30:23.446Z,95620.59
2022-09-26T12:33:21.030Z,95641.63
2022-09-26T12:36:01.761Z,95651.84
2022-09-26T12:38:39.985Z,95640.72
2022-09-26T12:41:31.217Z,95645.31
2022-09-26T12:44:42.578Z,95654.94
2022-09-26T12:47:28.025Z,95659.56
2022-09-26T12:50:12.456Z,95656.69
2022-09-26T12:53:27.199Z,95652.00
2022-09-26T12:56:10.874Z,95637.28
2022-09-26T12:59:13.164Z,95638.41
2022-09-26T13:01:49.954Z,95642.03
2022-09-26T13:04:34.043Z,95626.09
2022-09-26T13:07:24.569Z,95627.03
2022-09-26T13:09:58.042Z,95624.03
2022-09-26T13:12:51.017Z,95616.00
2022-09-26T13:15:44.643Z,95601.81
2022-09-26T13:18:17.338Z,95601.03
2022-09-26T13:20:49.867Z,95594.38
2022-09-26T13:23:21.965Z,95586.63
2022-09-26T13:26:03.040Z,95584.84
2022-09-26T13:29:00.490Z,95585.31
2022-09-26T13:34:07.606Z,95569.88
2022-09-26T13:36:34.912Z,95567.59
2022-09-26T13:39:16.333Z,95556.03
2022-09-26T13:42:02.106Z,95559.03
2022-09-26T13:44:37.599Z,95551.00
2022-09-26T13:47:19.633Z,95546.00
2022-09-26T13:50:01.160Z,95543.69
2022-09-26T13:52:30.377Z,95546.59
2022-09-26T13:55:02.994Z,95532.44
2022-09-26T13:57:46.643Z,95537.72
2022-09-26T14:00:16.958Z,95533.72
2022-09-26T14:03:18.510Z,95528.63
2022-09-26T14:05:45.851Z,95522.38
2022-09-26T14:08:43.155Z,95520.75
2022-09-26T14:11:24.691Z,95526.75
2022-09-26T14:14:16.768Z,95521.50
2022-09-26T14:16:47.916Z,95516.91
2022-09-26T14:19:15.587Z,95521.47
2022-09-26T14:22:06.186Z,95506.63
2022-09-26T14:24:41.517Z,95508.28
2022-09-26T14:27:14.142Z,95505.06
2022-09-26T14:29:44.760Z,95505.53
2022-09-26T14:32:17.321Z,95501.16
2022-09-26T14:34:49.017Z,95486.50
2022-09-26T14:37:24.254Z,95493.06
2022-09-26T14:40:00.029Z,95495.84
2022-09-26T14:42:52.700Z,95486.00
2022-09-26T14:45:22.112Z,95487.34
2022-09-26T14:48:19.183Z,95486.44
2022-09-26T14:51:19.653Z,95482.78
2022-09-26T14:53:49.185Z,95476.66
2022-09-26T14:56:35.055Z,95473.34
2022-09-26T14:59:16.262Z,95474.53
2022-09-26T15:01:44.314Z,95474.72
2022-09-26T15:04:27.314Z,95471.00
2022-09-26T15:07:02.320Z,95462.53
2022-09-26T15:09:45.037Z,95460.13
2022-09-26T15:12:21.166Z,95464.31
2022-09-26T15:14:54.038Z,95457.66
2022-09-26T15:17:29.058Z,95456.03
2022-09-26T15:19:58.892Z,95447.78
2022-09-26T15:22:29.247Z,95451.44
2022-09-26T15:25:15.451Z,95451.94
2022-09-26T15:27:47.044Z,95443.00
2022-09-26T15:30:19.030Z,95440.75
2022-09-26T15:32:49.924Z,95436.69
2022-09-26T15:35:16.865Z,95436.22
2022-09-26T15:37:43.669Z,95435.00
2022-09-26T15:40:22.690Z,95436.56
2022-09-26T15:42:59.122Z,95435.97
2022-09-26T15:45:50.482Z,95437.66
2022-09-26T15:48:20.027Z,95427.00
2022-09-26T15:51:07.320Z,95430.94
2022-09-26T15:53:37.440Z,95428.38
2022-09-26T15:56:36.553Z,95429.09
2022-09-26T15:59:28.148Z,95429.94
2022-09-26T16:01:55.314Z,95424.75
2022-09-26T16:04:27.482Z,95426.19
2022-09-26T16:06:58.235Z,95428.22
2022-09-26T16:09:33.410Z,95436.06
2022-09-26T16:12:03.408Z,95435.22
2022-09-26T16:14:43.568Z,95433.44
2022-09-26T16:17:27.668Z,95438.13
2022-09-26T16:19:56.765Z,95432.75
2022-09-26T16:22:49.237Z,95418.75
2022-09-26T16:25:15.481Z,95417.00
2022-09-26T16:27:42.280Z,95417.53
2022-09-26T16:30:23.708Z,95399.22
2022-09-26T16:33:15.171Z,95410.00
2022-09-26T16:35:47.291Z,95414.63
2022-09-26T16:38:22.948Z,95406.59
2022-09-26T16:40:52.308Z,95405.44
2022-09-26T16:43:32.027Z,95403.53
2022-09-26T16:46:13.597Z,95399.44
2022-09-26T16:49:02.310Z,95401.94
2022-09-26T16:51:36.339Z,95403.19
2022-09-26T16:54:08.376Z,95394.50
2022-09-26T16:56:38.961Z,95397.81
2022-09-26T16:59:37.661Z,95400.28
2022-09-26T17:02:04.111Z,95396.34
2022-09-26T17:04:35.909Z,95399.78
2022-09-26T17:07:09.705Z,95394.00
2022-09-26T17:09:36.820Z,95395.41
2022-09-26T17:12:06.647Z,95394.44
2022-09-26T17:14:40.773Z,95396.09
2022-09-26T17:17:15.976Z,95394.81
2022-09-26T17:19:45.228Z,95398.44
2022-09-26T17:22:17.937Z,95395.75
2022-09-26T17:24:44.982Z,95401.09
2022-09-26T17:27:23.579Z,95387.81
2022-09-26T17:29:51.870Z,95396.94
2022-09-26T17:32:29.845Z,95394.50
2022-09-26T17:34:59.797Z,95398.56
2022-09-26T17:37:27.224Z,95394.94
2022-09-26T17:39:55.173Z,95392.09
2022-09-26T17:42:22.701Z,95387.91
2022-09-26T17:44:49.012Z,95386.84
2022-09-26T17:47:16.506Z,95384.69
2022-09-26T17:49:46.207Z,95381.06
2022-09-26T17:52:25.806Z,95378.59
2022-09-26T17:54:55.732Z,95378.13
2022-09-26T17:57:24.508Z,95377.88
2022-09-26T17:59:54.025Z,95376.59
2022-09-26T18:02:24.282Z,95376.66
2022-09-26T18:04:53.770Z,95375.38
2022-09-26T18:07:22.295Z,95370.38
2022-09-26T18:09:51.956Z,95371.38
2022-09-26T18:12:22.561Z,95365.75
2022-09-26T18:14:51.003Z,95364.66
2022-09-26T18:17:18.494Z,95362.19
2022-09-26T18:19:45.406Z,95349.28
2022-09-26T18:22:16.954Z,95351.56
2022-09-26T18:24:47.000Z,95348.28
2022-09-26T18:27:15.822Z,95351.91
2022-09-26T18:29:44.478Z,95347.47
2022-09-26T18:32:25.824Z,95345.94
2022-09-26T18:34:52.344Z,95343.94
2022-09-26T18:37:18.664Z,95347.94
2022-09-26T18:39:45.195Z,95347.16
2022-09-26T18:42:17.258Z,95349.94
2022-09-26T18:44:51.215Z,95342.97
2022-09-26T18:47:17.850Z,95338.81
2022-09-26T18:49:53.388Z,95324.50
2022-09-26T18:52:22.291Z,95322.63
2022-09-26T18:55:10.682Z,95322.88
2022-09-26T18:57:55.572Z,95323.59
2022-09-26T19:00:28.826Z,95323.25
2022-09-26T19:02:56.992Z,95319.06
2022-09-26T19:05:23.533Z,95313.00
2022-09-26T19:07:50.512Z,95308.81
2022-09-26T19:10:19.910Z,95315.06
2022-09-26T19:12:46.811Z,95302.25
2022-09-26T19:15:16.358Z,95313.78
2022-09-26T19:17:45.676Z,95303.41
2022-09-26T19:20:12.224Z,95309.69
2022-09-26T19:22:39.554Z,95303.34
2022-09-26T19:25:06.747Z,95301.72
2022-09-26T19:27:42.376Z,95300.53
2022-09-26T19:30:18.397Z,95289.31
2022-09-26T19:32:58.247Z,95285.03
2022-09-26T19:35:33.712Z,95286.22
2022-09-26T19:38:01.858Z,95281.69
2022-09-26T19:40:28.755Z,95282.13
2022-09-26T19:42:56.987Z,95285.41
2022-09-26T19:45:24.778Z,95293.38
2022-09-26T19:47:54.351Z,95291.22
2022-09-26T19:50:23.929Z,95290.06
2022-09-26T19:52:51.819Z,95286.44
2022-09-26T19:55:21.671Z,95295.78
2022-09-26T19:57:48.003Z,95287.16
2022-09-26T20:00:15.163Z,95295.91
2022-09-26T20:02:42.316Z,95287.81
2022-09-26T20:05:23.872Z,95291.63
2022-09-26T20:07:51.008Z,95304.88
2022-09-26T20:10:23.219Z,95306.94
2022-09-26T20:12:50.755Z,95297.81
2022-09-26T20:15:20.253Z,95296.19
2022-09-26T20:17:47.577Z,95306.44
2022-09-26T20:20:22.926Z,95305.19
2022-09-26T20:22:56.424Z,95312.56
2022-09-26T20:25:32.514Z,95316.75
2022-09-26T20:28:00.041Z,95307.13
2022-09-26T20:30:45.546Z,95300.84
2022-09-26T20:33:13.350Z,95306.63
2022-09-26T20:35:47.651Z,95301.09
2022-09-26T20:38:34.071Z,95283.13
2022-09-26T20:41:12.917Z,95287.00
2022-09-26T20:43:40.579Z,95272.63
2022-09-26T20:46:11.749Z,95268.44
2022-09-26T20:48:43.957Z,95259.22
2022-09-26T20:51:23.676Z,95264.66
2022-09-26T20:53:53.399Z,95246.16
2022-09-26T20:56:21.440Z,95256.06
2022-09-26T20:58:48.491Z,95255.56
2022-09-26T21:01:16.857Z,95256.19
2022-09-26T21:03:48.974Z,95241.56
2022-09-26T21:06:18.404Z,95236.84
2022-09-26T21:08:45.734Z,95226.78
2022-09-26T21:11:17.041Z,95220.19
2022-09-26T21:13:43.496Z,95215.19
2022-09-26T21:16:18.851Z,95209.78
2022-09-26T21:21:32.901Z,95210.44
2022-09-26T21:24:20.487Z,95210.97
2022-09-26T21:26:58.375Z,95209.50
2022-09-26T21:29:39.013Z,95216.66
2022-09-26T21:32:08.886Z,95201.47
2022-09-26T21:34:36.289Z,95199.63
2022-09-26T21:37:03.704Z,95215.66
2022-09-26T21:39:30.438Z,95203.06
2022-09-26T21:42:01.621Z,95203.13
2022-09-26T21:44:32.521Z,95209.41
2022-09-26T21:46:58.818Z,95195.19
2022-09-26T21:49:25.184Z,95199.00
2022-09-26T21:51:58.244Z,95194.78
2022-09-26T21:54:29.650Z,95202.19
2022-09-26T21:57:02.929Z,95201.13
2022-09-26T21:59:30.011Z,95188.06
2022-09-26T22:01:56.365Z,95178.88
2022-09-26T22:04:22.922Z,95179.63
2022-09-26T22:06:49.242Z,95170.91
2022-09-26T22:09:15.707Z,95172.34
2022-09-26T22:11:42.142Z,95170.72
2022-09-26T22:14:08.483Z,95166.72
2022-09-26T22:16:34.810Z,95168.16
2022-09-26T22:19:01.233Z,95172.72
2022-09-26T22:21:27.924Z,95154.75
2022-09-26T22:23:54.395Z,95168.50
2022-09-26T22:26:21.001Z,95155.06
2022-09-26T22:28:47.417Z,95144.34
2022-09-26T22:31:13.819Z,95139.69
2022-09-26T22:33:40.821Z,95140.34
2022-09-26T22:36:08.117Z,95138.69
2022-09-26T22:38:36.193Z,95133.63
2022-09-26T22:41:05.210Z,95133.97
2022-09-26T22:43:32.814Z,95149.72
2022-09-26T22:46:11.216Z,95116.50
2022-09-26T22:48:46.374Z,95123.38
2022-09-26T22:51:14.012Z,95128.13
2022-09-26T22:53:41.594Z,95121.94
2022-09-26T22:56:11.469Z,95114.28
2022-09-26T22:58:47.152Z,95100.28
2022-09-26T23:01:19.097Z,95103.53
2022-09-26T23:03:45.612Z,95091.53
2022-09-26T23:06:12.052Z,95110.72
2022-09-26T23:08:38.362Z,95111.38
2022-09-26T23:11:06.731Z,95105.66
2022-09-26T23:13:35.088Z,95095.34
2022-09-26T23:16:06.301Z,95097.69
2022-09-26T23:18:34.597Z,95085.09
2022-09-26T23:21:09.191Z,95074.50
2022-09-26T23:23:36.198Z,95099.22
2022-09-26T23:26:02.657Z,95101.69
2022-09-26T23:28:28.959Z,95078.91
2022-09-26T23:30:55.378Z,95094.63
2022-09-26T23:33:21.769Z,95085.03
2022-09-26T23:35:56.919Z,95075.03
2022-09-26T23:38:23.217Z,95067.97
2022-09-26T23:40:49.593Z,95060.50
2022-09-26T23:43:16.005Z,95058.34
2022-09-26T23:45:42.367Z,95055.72
2022-09-26T23:48:08.700Z,95045.19
2022-09-26T23:50:35.006Z,95077.28
2022-09-26T23:53:06.333Z,95036.69
2022-09-26T23:55:33.106Z,95048.41
2022-09-26T23:57:59.438Z,95028.47
